Time;durP1;ratioP1;P1;durP2;ratioP2;P2;SDS_P1;SDS_P2;PMS_P1;PMS_P2;Temp;Humidity;BMP_temperature;BMP_pressure;BME280_temperature;BME280_humidity;BME280_pressure;Samples;Min_cycle;Max_cycle;Signal;HPM_P1;HPM_P2
2022/11/08 05:05:15;;;;;;;2.90;2.65;;;6.00;99.90;;;;;;5377034;22;20257;-64
2022/11/08 05:07:40;;;;;;;4.67;3.20;;;6.00;99.90;;;;;;5034144;28;20251;-67
2022/11/08 05:10:06;;;;;;;3.40;3.10;;;6.00;99.90;;;;;;5033900;28;20543;-66
2022/11/08 05:12:32;;;;;;;3.92;3.20;;;6.00;99.90;;;;;;5033895;28;20178;-69
2022/11/08 05:14:57;;;;;;;4.17;3.77;;;6.00;99.90;;;;;;5019516;28;20216;-66
2022/11/08 05:17:23;;;;;;;3.37;3.07;;;6.00;99.90;;;;;;5014798;28;20222;-65
2022/11/08 05:25:17;;;;;;;4.10;3.70;;;5.90;99.90;;;;;;5014493;28;20200;-65
2022/11/08 05:27:42;;;;;;;3.23;3.00;;;5.80;99.90;;;;;;5013972;28;20589;-66
2022/11/08 05:30:08;;;;;;;3.03;2.80;;;5.80;99.90;;;;;;5014390;28;20249;-65
2022/11/08 05:32:34;;;;;;;2.97;2.77;;;5.80;99.90;;;;;;4996335;28;20529;-67
2022/11/08 05:35:00;;;;;;;3.33;3.03;;;5.80;99.90;;;;;;4995257;28;20968;-65
2022/11/08 05:37:25;;;;;;;3.67;2.90;;;5.80;99.90;;;;;;5014181;28;20183;-64
2022/11/08 05:39:51;;;;;;;3.57;3.27;;;5.80;99.90;;;;;;5014341;28;20179;-65
2022/11/08 05:42:16;;;;;;;3.30;2.80;;;5.70;99.90;;;;;;5014279;28;20163;-66
2022/11/08 05:44:42;;;;;;;2.53;2.33;;;5.70;99.90;;;;;;5013773;28;20526;-65
2022/11/08 05:47:07;;;;;;;2.63;2.43;;;5.70;99.90;;;;;;5014185;28;20172;-66
2022/11/08 05:49:33;;;;;;;3.00;2.50;;;5.80;99.90;;;;;;5013927;28;20237;-66
2022/11/08 05:51:59;;;;;;;2.70;2.53;;;5.80;99.90;;;;;;5013737;28;20266;-64
2022/11/08 05:54:24;;;;;;;2.67;2.47;;;5.80;99.90;;;;;;5012839;28;20274;-66
2022/11/08 05:56:50;;;;;;;3.13;2.83;;;5.80;99.90;;;;;;4996157;28;20179;-65
2022/11/08 05:59:16;;;;;;;2.80;2.60;;;5.80;99.90;;;;;;5013770;28;20683;-65
2022/11/08 06:01:41;;;;;;;2.17;2.07;;;5.90;99.90;;;;;;5011344;28;20523;-64
2022/11/08 06:04:07;;;;;;;3.13;2.83;;;5.90;99.90;;;;;;5009303;28;20206;-66
2022/11/08 06:06:32;;;;;;;3.10;2.90;;;6.00;99.90;;;;;;5013198;28;20226;-66
2022/11/08 06:08:58;;;;;;;2.57;2.30;;;6.00;99.90;;;;;;5013283;28;20225;-66
2022/11/08 06:11:25;;;;;;;6.10;3.70;;;5.90;99.90;;;;;;5013704;28;20199;-64
2022/11/08 06:13:52;;;;;;;2.50;2.38;;;5.90;99.90;;;;;;5013019;28;20279;-67
2022/11/08 06:16:19;;;;;;;4.10;3.70;;;5.90;99.90;;;;;;5013165;28;20213;-65
2022/11/08 06:18:45;;;;;;;2.90;2.70;;;5.80;99.90;;;;;;5012983;28;20169;-65
2022/11/08 06:21:13;;;;;;;5.28;3.70;;;5.80;99.90;;;;;;5012887;28;20551;-63
2022/11/08 06:23:39;;;;;;;3.40;3.10;;;5.80;99.90;;;;;;5012500;28;20198;-65
2022/11/08 06:26:05;;;;;;;8.05;3.60;;;5.80;99.90;;;;;;5013310;28;20203;-64
2022/11/08 06:28:31;;;;;;;3.40;3.07;;;5.90;99.90;;;;;;5013332;28;20660;-64
2022/11/08 06:31:01;;;;;;;3.47;3.15;;;5.80;99.90;;;;;;5013347;28;20183;-63
2022/11/08 06:33:27;;;;;;;3.50;3.20;;;5.80;99.90;;;;;;5012683;28;20643;-64
2022/11/08 06:35:53;;;;;;;3.40;3.20;;;5.80;99.90;;;;;;5013068;28;20208;-65
2022/11/08 06:38:19;;;;;;;4.63;4.25;;;5.90;99.90;;;;;;5012935;28;20205;-65
2022/11/08 06:40:46;;;;;;;3.87;3.20;;;5.90;99.90;;;;;;5016700;28;20209;-67
2022/11/08 06:43:12;;;;;;;2.92;2.67;;;5.90;99.90;;;;;;5017027;28;20178;-66
2022/11/08 06:45:38;;;;;;;4.70;4.20;;;6.00;99.90;;;;;;4996099;28;20591;-67
2022/11/08 06:48:05;;;;;;;6.63;4.20;;;6.00;99.90;;;;;;5015705;28;20176;-66
2022/11/08 06:50:33;;;;;;;3.90;3.22;;;6.10;99.90;;;;;;4997326;28;20968;-67
2022/11/08 06:53:06;;;;;;;4.88;4.05;;;6.20;99.90;;;;;;5008085;28;20290;-65
2022/11/08 06:55:32;;;;;;;4.47;3.53;;;6.30;99.90;;;;;;4979802;28;20297;-64
2022/11/08 06:57:57;;;;;;;4.30;3.90;;;6.40;99.90;;;;;;5008477;28;20173;-65
2022/11/08 07:00:24;;;;;;;4.77;4.27;;;6.60;99.90;;;;;;5016388;28;20582;-65
2022/11/08 07:02:58;;;;;;;4.50;4.03;;;6.90;99.90;;;;;;5016217;28;20238;-66
2022/11/08 07:05:24;;;;;;;5.30;3.50;;;7.10;99.90;;;;;;5017052;28;20220;-65
2022/11/08 07:07:53;;;;;;;4.55;2.95;;;7.20;99.90;;;;;;5017157;28;20239;-65
2022/11/08 07:10:20;;;;;;;4.10;3.70;;;7.20;99.90;;;;;;5010455;28;20218;-65
2022/11/08 07:12:46;;;;;;;4.50;4.10;;;7.20;99.90;;;;;;4990919;28;20225;-67
2022/11/08 07:15:13;;;;;;;4.10;3.70;;;7.10;99.90;;;;;;5011025;28;20292;-69
2022/11/08 07:17:38;;;;;;;4.07;3.42;;;7.10;99.90;;;;;;5014666;28;20182;-68
2022/11/08 07:20:05;;;;;;;3.83;3.40;;;7.10;99.90;;;;;;5007373;28;20172;-67
2022/11/08 07:22:30;;;;;;;5.15;3.50;;;7.20;99.90;;;;;;5014027;28;20173;-66
2022/11/08 07:24:56;;;;;;;3.97;3.67;;;7.20;99.90;;;;;;5005578;28;20697;-66
2022/11/08 07:27:22;;;;;;;7.50;4.25;;;7.40;99.90;;;;;;4979740;28;20590;-66
2022/11/08 07:29:48;;;;;;;3.93;3.63;;;7.50;99.90;;;;;;4986117;28;20317;-67
2022/11/08 07:32:13;;;;;;;10.83;4.07;;;7.60;99.90;;;;;;5016389;28;20178;-66
2022/11/08 07:34:39;;;;;;;4.23;3.67;;;7.90;99.90;;;;;;5015949;28;20662;-66
2022/11/08 07:37:04;;;;;;;5.00;4.53;;;8.20;99.90;;;;;;5015992;28;20284;-66
2022/11/08 07:39:30;;;;;;;4.27;3.30;;;8.50;99.90;;;;;;5016237;28;20234;-66
2022/11/08 07:41:55;;;;;;;3.17;2.97;;;8.60;99.90;;;;;;5014619;28;20171;-66
2022/11/08 07:44:21;;;;;;;4.00;3.70;;;8.70;99.90;;;;;;5014552;28;20201;-66
2022/11/08 07:46:47;;;;;;;3.30;2.47;;;8.70;99.90;;;;;;5015553;28;20167;-66
2022/11/08 07:49:12;;;;;;;3.30;2.87;;;8.90;99.90;;;;;;5015536;28;20175;-64
2022/11/08 07:51:38;;;;;;;4.63;2.10;;;9.10;99.90;;;;;;5015723;28;20207;-65
2022/11/08 07:54:03;;;;;;;3.57;2.50;;;9.40;99.90;;;;;;5015478;28;20555;-65
2022/11/08 07:56:29;;;;;;;3.20;2.70;;;9.80;99.90;;;;;;5015078;28;20211;-65
2022/11/08 07:58:55;;;;;;;2.43;2.00;;;10.00;99.90;;;;;;5015490;28;20226;-65
2022/11/08 08:01:20;;;;;;;2.40;2.17;;;10.10;99.90;;;;;;5015742;28;20173;-66
2022/11/08 08:03:46;;;;;;;2.87;2.60;;;10.30;99.90;;;;;;5015560;28;20389;-65
2022/11/08 08:06:11;;;;;;;2.60;2.40;;;10.30;99.90;;;;;;5015982;28;20210;-65
2022/11/08 08:08:37;;;;;;;2.90;2.70;;;10.20;99.90;;;;;;5015468;28;20176;-64
2022/11/08 08:11:03;;;;;;;2.57;2.37;;;10.40;99.90;;;;;;5015612;28;20184;-66
2022/11/08 08:13:30;;;;;;;2.97;2.30;;;11.00;99.90;;;;;;5015181;28;20262;-65
2022/11/08 08:15:59;;;;;;;2.60;2.30;;;11.60;99.90;;;;;;4998038;28;20825;-65
2022/11/08 08:18:26;;;;;;;2.83;2.63;;;12.20;99.90;;;;;;5015738;28;20497;-67
2022/11/08 08:20:51;;;;;;;4.03;2.37;;;;;;;;;;5015639;28;20498;-66
2022/11/08 08:23:17;;;;;;;3.17;2.87;;;;;;;;;;5015352;28;20797;-66
2022/11/08 08:25:43;;;;;;;2.30;2.10;;;;;;;;;;5014099;28;20434;-67
2022/11/08 08:28:10;;;;;;;2.97;2.10;;;;;;;;;;5015047;28;20447;-64
2022/11/08 08:30:37;;;;;;;2.67;2.47;;;;;;;;;;5015311;28;20490;-66
2022/11/08 08:33:11;;;;;;;2.50;2.30;;;;;;;;;;5015156;28;20468;-63
2022/11/08 08:35:37;;;;;;;2.00;1.90;;;13.10;99.90;;;;;;5015172;28;20877;-66
2022/11/08 08:38:04;;;;;;;2.03;1.93;;;;;;;;;;5015300;28;20384;-65
2022/11/08 08:40:32;;;;;;;3.10;2.80;;;19.60;95.50;;;;;;5013738;28;20837;-66
2022/11/08 08:42:58;;;;;;;3.00;2.70;;;20.70;92.50;;;;;;5014549;28;20529;-64
2022/11/08 08:45:25;;;;;;;2.60;2.40;;;;;;;;;;5014990;28;20424;-65
2022/11/08 08:47:52;;;;;;;2.80;2.60;;;20.80;92.10;;;;;;5015137;28;20491;-64
2022/11/08 08:50:18;;;;;;;2.30;2.10;;;21.30;91.50;;;;;;4997376;28;20483;-65
2022/11/08 08:52:43;;;;;;;2.63;2.40;;;21.70;91.00;;;;;;5014553;28;20749;-65
2022/11/08 08:55:09;;;;;;;2.53;2.33;;;22.30;88.20;;;;;;4997177;28;20210;-64
2022/11/08 08:57:35;;;;;;;2.33;2.13;;;22.70;87.70;;;;;;5014663;28;20182;-65
2022/11/08 09:00:00;;;;;;;3.07;2.77;;;22.80;82.90;;;;;;4997459;28;20266;-64
2022/11/08 09:02:26;;;;;;;5.77;2.60;;;22.30;82.00;;;;;;5012690;28;20183;-64
2022/11/08 09:04:51;;;;;;;2.50;2.20;;;21.50;83.30;;;;;;5014498;28;20594;-64
2022/11/08 09:07:17;;;;;;;2.43;2.20;;;20.80;85.00;;;;;;5014788;28;20179;-64
2022/11/08 09:09:43;;;;;;;2.47;2.27;;;19.90;88.60;;;;;;4997312;28;20742;-63
2022/11/08 09:12:08;;;;;;;2.43;2.23;;;19.40;90.20;;;;;;5013943;28;20185;-64
2022/11/08 09:14:34;;;;;;;2.40;2.00;;;18.90;90.90;;;;;;5013612;28;20210;-64
2022/11/08 09:16:59;;;;;;;1.97;1.87;;;18.70;90.80;;;;;;5014578;28;20170;-63
2022/11/08 09:19:25;;;;;;;1.70;1.60;;;18.50;91.10;;;;;;5014677;28;20170;-63
2022/11/08 09:21:51;;;;;;;2.77;2.57;;;18.50;91.70;;;;;;5014506;28;20213;-64
2022/11/08 09:24:16;;;;;;;2.77;2.00;;;18.50;91.20;;;;;;5013805;28;20560;-64
2022/11/08 09:26:42;;;;;;;1.83;1.53;;;18.40;91.40;;;;;;4996466;28;20179;-64
2022/11/08 09:29:07;;;;;;;1.63;1.60;;;18.30;91.90;;;;;;4996638;28;20210;-64
2022/11/08 09:31:33;;;;;;;1.50;1.40;;;18.60;92.40;;;;;;5014249;28;20643;-64
2022/11/08 09:33:59;;;;;;;2.00;1.90;;;19.30;90.70;;;;;;4996190;28;20233;-64
2022/11/08 09:36:24;;;;;;;3.00;1.63;;;19.60;88.30;;;;;;5014455;28;20206;-64
2022/11/08 09:38:50;;;;;;;1.20;1.20;;;19.50;85.10;;;;;;5014181;28;20213;-64
2022/11/08 09:41:37;;;;;;;1.73;1.50;;;19.10;86.20;;;;;;5013782;28;20187;-64
2022/11/08 09:44:25;;;;;;;1.50;1.50;;;18.70;88.10;;;;;;4995965;28;20199;-64
2022/11/08 09:46:55;;;;;;;1.50;1.40;;;18.10;88.40;;;;;;5014511;28;20417;-65
2022/11/08 09:49:29;;;;;;;3.23;2.13;;;17.50;90.20;;;;;;5014025;28;20423;-65
2022/11/08 09:51:56;;;;;;;1.33;1.20;;;17.20;91.20;;;;;;4994470;28;20405;-64
2022/11/08 09:54:28;;;;;;;1.20;1.20;;;17.10;91.20;;;;;;4993861;28;20430;-64
2022/11/08 09:56:54;;;;;;;0.87;0.87;;;17.00;91.30;;;;;;4994568;28;20421;-65
2022/11/08 09:59:43;;;;;;;2.70;1.70;;;16.80;91.40;;;;;;5011189;28;20410;-68
2022/11/08 10:02:18;;;;;;;1.73;1.10;;;16.70;91.90;;;;;;4993330;28;20494;-65
2022/11/08 10:04:52;;;;;;;2.60;2.40;;;16.70;92.10;;;;;;4993800;28;20527;-64
2022/11/08 10:07:43;;;;;;;1.70;1.60;;;16.70;92.50;;;;;;4998097;28;20946;-64
2022/11/08 10:10:38;;;;;;;2.03;1.90;;;16.90;92.70;;;;;;5000884;28;20424;-68
2022/11/08 10:13:11;;;;;;;2.37;1.60;;;17.50;92.70;;;;;;5002172;28;20918;-65
2022/11/08 10:16:01;;;;;;;1.33;1.23;;;18.00;92.10;;;;;;5013480;28;20468;-63
2022/11/08 10:18:49;;;;;;;1.10;1.10;;;18.30;91.70;;;;;;5013321;28;20410;-66
2022/11/08 10:21:45;;;;;;;3.13;2.27;;;18.40;91.10;;;;;;5013904;28;20489;-63
2022/11/08 10:24:26;;;;;;;1.53;1.43;;;18.40;90.60;;;;;;5013249;28;20396;-64
2022/11/08 10:26:56;;;;;;;2.77;2.07;;;18.30;89.50;;;;;;5012407;28;20412;-62
2022/11/08 10:29:29;;;;;;;2.40;1.43;;;18.20;90.10;;;;;;5013083;28;20428;-64
2022/11/08 10:32:07;;;;;;;4.00;1.43;;;18.00;90.50;;;;;;5013590;28;20426;-64
2022/11/08 10:34:42;;;;;;;1.53;1.43;;;17.80;91.20;;;;;;5012874;28;20504;-64
2022/11/08 10:37:14;;;;;;;1.53;1.17;;;17.50;91.50;;;;;;4995790;28;20417;-64
2022/11/08 10:39:52;;;;;;;1.83;1.60;;;17.40;92.10;;;;;;5013509;28;20400;-64
2022/11/08 10:42:40;;;;;;;1.90;1.63;;;17.30;92.30;;;;;;5013570;28;20390;-64
2022/11/08 10:45:08;;;;;;;1.83;1.20;;;17.30;92.50;;;;;;5012999;28;20502;-64
2022/11/08 10:47:34;;;;;;;1.50;1.40;;;17.30;92.70;;;;;;4995802;28;20414;-64
2022/11/08 10:49:59;;;;;;;1.70;1.60;;;17.20;92.60;;;;;;5013292;28;20410;-65
2022/11/08 10:52:59;;;;;;;1.30;1.20;;;17.10;93.30;;;;;;5013372;28;20172;-64
2022/11/08 10:55:32;;;;;;;2.10;1.57;;;17.00;93.60;;;;;;5012203;28;20566;-64
2022/11/08 10:57:58;;;;;;;3.43;1.57;;;16.90;93.50;;;;;;4995883;28;20392;-64
2022/11/08 11:00:32;;;;;;;2.33;1.70;;;16.90;93.80;;;;;;5013382;28;20920;-64
2022/11/08 11:03:04;;;;;;;1.77;1.67;;;16.90;93.90;;;;;;5012742;28;20403;-65
2022/11/08 11:05:36;;;;;;;1.40;1.27;;;16.80;94.30;;;;;;5013102;28;20441;-64
2022/11/08 11:08:04;;;;;;;1.40;1.30;;;16.70;94.40;;;;;;4979509;28;20768;-65
2022/11/08 11:10:36;;;;;;;1.40;1.30;;;16.70;94.90;;;;;;5013241;28;20436;-66
2022/11/08 11:13:08;;;;;;;2.90;1.90;;;16.60;94.40;;;;;;5012454;28;20507;-66
2022/11/08 11:15:44;;;;;;;1.63;1.53;;;16.60;94.70;;;;;;5012472;28;20463;-65
2022/11/08 11:18:28;;;;;;;1.60;1.50;;;16.70;94.60;;;;;;5012876;28;20426;-63
2022/11/08 11:20:56;;;;;;;1.93;1.77;;;16.80;94.60;;;;;;5012928;28;20406;-65
2022/11/08 11:23:22;;;;;;;1.60;1.50;;;16.90;94.70;;;;;;5012500;28;20412;-64
2022/11/08 11:25:52;;;;;;;1.90;1.60;;;16.90;94.10;;;;;;5014885;28;20405;-64
2022/11/08 11:28:18;;;;;;;1.40;1.40;;;16.90;94.10;;;;;;4999421;28;20594;-63
2022/11/08 11:31:01;;;;;;;1.53;1.40;;;16.90;93.90;;;;;;4999083;28;20422;-65
2022/11/08 11:33:28;;;;;;;1.70;1.60;;;16.90;93.80;;;;;;5016353;28;20596;-65
2022/11/08 11:36:11;;;;;;;2.27;2.07;;;16.90;94.10;;;;;;5016657;28;20467;-65
2022/11/08 11:38:48;;;;;;;3.20;1.70;;;16.80;94.00;;;;;;5016681;28;20913;-65
2022/11/08 11:41:42;;;;;;;1.87;1.77;;;16.90;94.20;;;;;;5016589;28;20472;-64
2022/11/08 11:44:20;;;;;;;1.97;1.70;;;16.90;94.40;;;;;;5005190;28;20850;-64
2022/11/08 11:46:52;;;;;;;2.00;1.60;;;16.90;94.50;;;;;;4996769;28;20474;-62
2022/11/08 11:49:21;;;;;;;2.07;1.90;;;16.90;94.50;;;;;;4996828;28;20420;-64
2022/11/08 11:51:52;;;;;;;1.77;1.60;;;16.90;94.60;;;;;;5004366;28;20451;-63
2022/11/08 11:54:17;;;;;;;2.20;1.90;;;17.00;95.00;;;;;;5011107;28;20953;-64
2022/11/08 11:57:06;;;;;;;2.50;1.67;;;17.00;94.80;;;;;;4996451;28;20433;-64
2022/11/08 12:00:03;;;;;;;1.67;1.57;;;17.00;94.70;;;;;;4997306;28;20527;-62
2022/11/08 12:03:02;;;;;;;5.23;3.70;;;17.10;94.80;;;;;;4996608;28;20376;-64
2022/11/08 12:05:45;;;;;;;1.60;1.50;;;17.20;94.10;;;;;;4996309;28;20438;-63
2022/11/08 12:08:29;;;;;;;1.30;1.20;;;17.20;93.90;;;;;;4996616;28;20404;-63
2022/11/08 12:11:27;;;;;;;1.70;1.37;;;17.30;94.00;;;;;;4996225;28;20465;-64
2022/11/08 12:14:23;;;;;;;1.53;1.43;;;17.30;93.60;;;;;;5013726;28;20448;-64
2022/11/08 12:17:17;;;;;;;1.70;1.60;;;17.40;93.80;;;;;;5015552;28;20431;-64
2022/11/08 12:20:05;;;;;;;1.33;1.10;;;17.50;93.50;;;;;;5015609;28;20405;-64
2022/11/08 12:22:55;;;;;;;2.73;1.73;;;17.50;93.70;;;;;;4997957;28;20416;-62
2022/11/08 12:25:35;;;;;;;1.30;1.23;;;17.50;94.30;;;;;;5015233;28;20435;-66
2022/11/08 12:28:34;;;;;;;1.60;1.30;;;17.60;93.90;;;;;;4997663;28;20415;-63
2022/11/08 12:31:24;;;;;;;1.70;1.60;;;17.70;93.90;;;;;;5015380;28;20483;-63
2022/11/08 12:34:16;;;;;;;0.97;0.97;;;17.90;93.80;;;;;;4999350;28;20461;-63
2022/11/08 12:37:06;;;;;;;1.30;1.20;;;18.10;91.70;;;;;;5015160;28;20541;-65
2022/11/08 12:39:34;;;;;;;1.60;1.27;;;18.30;90.80;;;;;;5015411;28;20488;-64
2022/11/08 12:42:19;;;;;;;1.73;1.40;;;18.30;91.20;;;;;;5015309;28;20755;-63
2022/11/08 12:45:11;;;;;;;1.60;1.50;;;18.40;91.50;;;;;;5014602;28;20508;-63
2022/11/08 12:47:58;;;;;;;1.10;1.00;;;18.60;91.80;;;;;;5014903;28;20417;-63
2022/11/08 12:50:55;;;;;;;3.50;1.60;;;18.70;90.50;;;;;;5014812;28;20405;-64
2022/11/08 12:53:38;;;;;;;1.50;1.40;;;18.80;90.30;;;;;;5014616;28;20405;-64
2022/11/08 12:56:14;;;;;;;2.23;1.20;;;18.80;90.30;;;;;;5014851;28;20449;-65
2022/11/08 12:58:51;;;;;;;2.77;1.23;;;18.90;90.30;;;;;;5014612;28;20404;-64
2022/11/08 13:01:18;;;;;;;1.10;1.00;;;18.90;90.30;;;;;;5014575;28;20402;-65
2022/11/08 13:03:50;;;;;;;1.70;1.00;;;18.90;90.40;;;;;;4996641;28;20929;-64
2022/11/08 13:06:34;;;;;;;1.53;1.30;;;18.80;90.00;;;;;;5014861;28;20438;-64
2022/11/08 13:09:11;;;;;;;1.37;1.27;;;18.70;90.20;;;;;;5014691;28;20436;-66
2022/11/08 13:12:04;;;;;;;1.90;1.10;;;18.60;90.70;;;;;;5015069;28;20809;-64
2022/11/08 13:14:30;;;;;;;2.10;1.27;;;18.40;91.10;;;;;;5013953;28;20429;-65
2022/11/08 13:17:15;;;;;;;1.43;1.33;;;18.30;91.40;;;;;;5013637;28;20433;-64
2022/11/08 13:19:47;;;;;;;2.93;1.70;;;18.20;91.70;;;;;;5014170;28;20423;-64
2022/11/08 13:22:28;;;;;;;1.87;1.53;;;18.20;92.00;;;;;;5014056;28;20791;-64
2022/11/08 13:24:58;;;;;;;1.63;1.30;;;18.10;92.10;;;;;;5013895;28;20434;-64
2022/11/08 13:27:31;;;;;;;1.63;1.53;;;18.00;92.30;;;;;;5014131;28;20409;-64
2022/11/08 13:30:15;;;;;;;1.47;1.37;;;18.00;92.30;;;;;;5014367;28;20418;-65
2022/11/08 13:32:52;;;;;;;1.93;1.70;;;17.90;92.50;;;;;;4995885;28;20426;-62
2022/11/08 13:35:52;;;;;;;1.90;1.70;;;17.90;92.60;;;;;;5014043;28;20527;-63
2022/11/08 13:38:32;;;;;;;1.43;1.33;;;17.80;92.80;;;;;;5013638;28;20418;-64
2022/11/08 13:41:16;;;;;;;2.73;1.30;;;17.80;93.00;;;;;;5013944;28;20837;-64
2022/11/08 13:43:41;;;;;;;1.50;1.40;;;17.70;93.10;;;;;;5013124;28;20528;-63
2022/11/08 13:46:24;;;;;;;1.67;1.30;;;17.70;93.50;;;;;;4995762;28;20774;-63
2022/11/08 13:49:03;;;;;;;1.20;1.20;;;17.60;93.60;;;;;;5013408;28;20247;-63
2022/11/08 13:51:35;;;;;;;1.60;1.50;;;17.60;93.90;;;;;;5013629;28;20464;-62
2022/11/08 13:54:00;;;;;;;3.33;1.83;;;17.50;94.10;;;;;;4995464;28;20421;-63
2022/11/08 13:56:46;;;;;;;2.17;1.97;;;17.40;94.30;;;;;;5013544;28;20456;-63
2022/11/08 13:59:30;;;;;;;2.60;2.00;;;17.30;94.50;;;;;;5013611;28;20567;-64
2022/11/08 14:02:04;;;;;;;1.80;1.70;;;17.20;94.70;;;;;;5012892;28;20549;-63
2022/11/08 14:04:40;;;;;;;1.73;1.63;;;17.20;94.80;;;;;;5013035;28;20504;-64
2022/11/08 14:07:21;;;;;;;1.73;1.60;;;17.20;94.90;;;;;;5013336;28;20414;-64
2022/11/08 14:10:00;;;;;;;2.27;1.80;;;17.10;95.50;;;;;;5013234;28;20498;-65
2022/11/08 14:12:43;;;;;;;2.33;1.43;;;17.20;95.20;;;;;;5013121;28;20712;-65
2022/11/08 14:15:26;;;;;;;2.10;2.00;;;17.20;95.10;;;;;;5012777;28;20472;-64
2022/11/08 14:18:18;;;;;;;2.10;1.60;;;17.30;95.20;;;;;;5013294;28;20403;-64
2022/11/08 14:20:46;;;;;;;1.80;1.70;;;17.30;95.20;;;;;;5013235;28;20437;-64
2022/11/08 14:23:18;;;;;;;2.50;1.73;;;17.20;95.40;;;;;;5012398;28;20413;-63
2022/11/08 14:26:03;;;;;;;1.80;1.70;;;17.20;95.70;;;;;;5013188;28;20402;-64
2022/11/08 14:28:35;;;;;;;1.53;1.40;;;17.10;96.10;;;;;;5013255;28;20474;-63
2022/11/08 14:31:04;;;;;;;1.73;1.30;;;17.00;96.40;;;;;;5011280;28;20431;-65
2022/11/08 14:33:32;;;;;;;2.43;2.07;;;17.00;95.90;;;;;;5011844;28;20427;-64
2022/11/08 14:36:13;;;;;;;1.10;1.10;;;17.00;96.10;;;;;;4995354;28;20455;-64
2022/11/08 14:39:17;;;;;;;2.03;1.90;;;16.90;96.00;;;;;;5013125;28;20559;-63
2022/11/08 14:41:50;;;;;;;2.00;1.80;;;16.90;96.10;;;;;;5013290;28;20490;-63
2022/11/08 14:44:17;;;;;;;2.67;1.57;;;16.90;96.10;;;;;;5012938;28;20428;-69
2022/11/08 14:46:43;;;;;;;1.20;1.20;;;16.90;96.20;;;;;;5013055;28;20429;-64
2022/11/08 14:49:10;;;;;;;1.80;1.50;;;16.90;96.30;;;;;;4995560;28;20932;-65
2022/11/08 14:51:36;;;;;;;1.70;1.60;;;16.80;96.20;;;;;;4995635;28;20176;-63
2022/11/08 14:54:01;;;;;;;2.23;1.53;;;16.80;96.30;;;;;;5012524;28;20760;-64
2022/11/08 14:56:36;;;;;;;1.60;1.50;;;16.80;96.40;;;;;;5013002;28;20555;-63
2022/11/08 14:59:05;;;;;;;4.33;1.83;;;16.70;96.50;;;;;;5013026;28;20222;-65
2022/11/08 15:01:33;;;;;;;2.30;1.80;;;16.70;96.60;;;;;;5014685;28;20434;-63
2022/11/08 15:04:03;;;;;;;1.50;1.40;;;16.70;96.60;;;;;;5016310;28;20794;-63
2022/11/08 15:06:39;;;;;;;2.17;1.60;;;16.60;96.50;;;;;;5016660;28;20441;-63
2022/11/08 15:09:06;;;;;;;1.27;1.17;;;16.60;96.50;;;;;;5016926;28;20470;-63
2022/11/08 15:11:39;;;;;;;1.97;1.70;;;16.50;96.50;;;;;;5016694;28;20413;-64
2022/11/08 15:14:18;;;;;;;5.63;1.67;;;16.50;96.90;;;;;;5015933;28;20446;-63
2022/11/08 15:16:52;;;;;;;2.27;2.07;;;16.40;96.90;;;;;;4998713;28;20464;-63
2022/11/08 15:19:30;;;;;;;6.10;1.83;;;16.40;97.00;;;;;;5016685;28;20815;-64
2022/11/08 15:22:02;;;;;;;2.87;1.70;;;16.30;97.10;;;;;;5016650;28;20587;-63
2022/11/08 15:24:39;;;;;;;1.80;1.67;;;16.30;97.00;;;;;;5015762;28;20803;-63
2022/11/08 15:27:14;;;;;;;1.80;1.70;;;16.20;96.90;;;;;;5016305;28;20436;-64
2022/11/08 15:30:00;;;;;;;2.13;1.90;;;16.10;97.40;;;;;;5016540;28;20751;-63
2022/11/08 15:32:32;;;;;;;1.70;1.60;;;16.00;96.90;;;;;;5016534;28;20755;-63
2022/11/08 15:34:58;;;;;;;1.90;1.80;;;16.00;97.20;;;;;;5015801;28;20469;-62
2022/11/08 15:37:32;;;;;;;2.63;2.13;;;15.90;97.40;;;;;;5016010;28;20493;-62
2022/11/08 15:40:06;;;;;;;1.70;1.60;;;15.80;97.60;;;;;;5016339;28;20469;-63
2022/11/08 15:42:33;;;;;;;2.47;1.80;;;15.70;97.90;;;;;;5016183;28;20406;-62
2022/11/08 15:45:24;;;;;;;3.90;1.87;;;15.60;98.00;;;;;;5016070;28;20433;-62
2022/11/08 15:47:50;;;;;;;2.57;2.07;;;15.50;98.20;;;;;;5016245;28;20915;-63
2022/11/08 15:50:28;;;;;;;2.33;2.13;;;15.40;98.60;;;;;;5015897;28;20492;-63
2022/11/08 15:52:57;;;;;;;2.33;1.93;;;15.30;98.70;;;;;;5015369;28;20809;-62
2022/11/08 15:55:28;;;;;;;3.30;3.00;;;15.20;99.10;;;;;;5015698;28;20442;-63
2022/11/08 15:57:54;;;;;;;3.27;2.33;;;15.20;99.20;;;;;;5015758;28;20436;-63
2022/11/08 16:00:25;;;;;;;3.17;1.93;;;15.10;99.30;;;;;;5015455;28;20383;-62
2022/11/08 16:02:51;;;;;;;3.40;2.30;;;15.10;99.30;;;;;;5015338;28;20489;-63
2022/11/08 16:05:25;;;;;;;2.17;2.00;;;15.00;99.70;;;;;;4997822;28;20457;-62
2022/11/08 16:07:51;;;;;;;1.93;1.77;;;14.90;99.70;;;;;;5015293;28;20475;-63
2022/11/08 16:10:23;;;;;;;1.90;1.70;;;14.90;99.90;;;;;;5015482;28;20905;-62
2022/11/08 16:12:48;;;;;;;3.63;1.70;;;14.80;99.60;;;;;;5015156;28;20405;-63
2022/11/08 16:15:16;;;;;;;3.50;2.70;;;14.80;99.60;;;;;;5015299;28;20944;-63
2022/11/08 16:17:42;;;;;;;2.10;1.53;;;14.80;99.80;;;;;;5015452;28;20163;-62
2022/11/08 16:20:26;;;;;;;1.87;1.40;;;14.70;99.90;;;;;;5015378;28;20398;-63
2022/11/08 16:22:53;;;;;;;1.77;1.67;;;14.70;99.90;;;;;;5014397;28;20425;-63
2022/11/08 16:25:19;;;;;;;1.53;1.40;;;14.60;99.90;;;;;;5015097;28;20789;-62
2022/11/08 16:27:51;;;;;;;2.60;2.10;;;14.60;99.90;;;;;;5015366;28;20406;-62
2022/11/08 16:30:17;;;;;;;2.60;2.13;;;14.50;99.90;;;;;;5015131;28;20410;-63
2022/11/08 16:32:42;;;;;;;2.30;2.00;;;14.50;99.90;;;;;;5014385;28;20429;-63
2022/11/08 16:35:14;;;;;;;2.50;2.30;;;14.40;99.90;;;;;;5015011;28;20520;-63
2022/11/08 16:37:40;;;;;;;2.43;2.10;;;14.30;99.90;;;;;;5015054;28;20171;-63
2022/11/08 16:40:21;;;;;;;2.80;2.47;;;14.30;99.90;;;;;;5014817;28;20405;-63
2022/11/08 16:42:48;;;;;;;1.80;1.70;;;14.20;99.90;;;;;;5014705;28;20726;-63
2022/11/08 16:45:15;;;;;;;1.83;1.73;;;14.10;99.90;;;;;;5014825;28;20397;-63
2022/11/08 16:47:46;;;;;;;6.97;2.07;;;14.10;99.90;;;;;;5014534;28;20433;-62
2022/11/08 16:50:17;;;;;;;3.10;2.13;;;14.00;99.90;;;;;;5015168;28;20464;-62
2022/11/08 16:52:43;;;;;;;4.77;3.07;;;14.00;99.90;;;;;;5014468;28;20976;-63
2022/11/08 16:55:14;;;;;;;2.97;2.77;;;14.00;99.90;;;;;;5014387;28;20548;-64
2022/11/08 16:57:40;;;;;;;3.07;2.43;;;14.00;99.90;;;;;;4997139;28;20406;-63
2022/11/08 17:00:08;;;;;;;2.60;2.40;;;14.00;99.90;;;;;;5014813;28;20401;-62
2022/11/08 17:02:36;;;;;;;3.87;2.60;;;14.00;99.90;;;;;;5013890;28;20494;-66
2022/11/08 17:05:03;;;;;;;4.47;2.80;;;13.90;99.90;;;;;;5013689;28;20444;-63
2022/11/08 17:07:28;;;;;;;2.60;2.30;;;13.80;99.90;;;;;;5014069;28;20895;-63
2022/11/08 17:09:54;;;;;;;2.67;2.47;;;13.80;99.90;;;;;;5014346;28;20405;-62
2022/11/08 17:12:20;;;;;;;2.70;2.40;;;13.80;99.90;;;;;;5013963;28;20265;-62
2022/11/08 17:14:46;;;;;;;3.20;2.50;;;13.70;99.90;;;;;;5013669;28;20281;-65
2022/11/08 17:17:13;;;;;;;3.60;2.87;;;13.60;99.90;;;;;;5013455;28;20516;-65
2022/11/08 17:19:40;;;;;;;2.50;2.30;;;13.60;99.90;;;;;;5014032;28;20418;-64
2022/11/08 17:22:06;;;;;;;4.47;2.80;;;13.50;99.90;;;;;;5011772;28;20429;-65
2022/11/08 17:24:32;;;;;;;3.00;2.77;;;13.60;99.90;;;;;;5013135;28;20428;-63
2022/11/08 17:26:57;;;;;;;4.37;3.00;;;13.60;99.90;;;;;;5014251;28;20436;-68
2022/11/08 17:29:23;;;;;;;3.73;3.43;;;13.60;99.90;;;;;;5014250;28;20646;-65
2022/11/08 17:31:49;;;;;;;2.43;2.30;;;13.60;99.90;;;;;;5014055;28;20175;-66
2022/11/08 17:34:14;;;;;;;3.90;2.93;;;13.50;99.90;;;;;;5013882;28;20193;-65
2022/11/08 17:36:41;;;;;;;3.40;2.70;;;13.50;99.90;;;;;;5013728;28;20677;-65
2022/11/08 17:39:06;;;;;;;2.23;2.00;;;13.40;99.90;;;;;;5013946;28;20300;-64
2022/11/08 17:41:32;;;;;;;2.57;2.37;;;13.40;99.90;;;;;;5013238;28;20837;-65
2022/11/08 17:43:57;;;;;;;2.87;2.70;;;13.40;99.90;;;;;;5012781;28;20208;-64
2022/11/08 17:46:24;;;;;;;3.37;2.40;;;13.40;99.90;;;;;;4995822;28;20170;-64
2022/11/08 17:48:50;;;;;;;3.20;2.13;;;13.50;99.90;;;;;;5013758;28;20549;-64
2022/11/08 17:51:16;;;;;;;2.13;2.00;;;13.60;99.90;;;;;;5013044;28;20455;-64
2022/11/08 17:53:42;;;;;;;2.70;2.50;;;13.70;99.90;;;;;;5013249;28;20202;-64
2022/11/08 17:56:09;;;;;;;2.60;2.40;;;13.70;99.90;;;;;;5012628;28;20202;-65
2022/11/08 17:58:36;;;;;;;2.67;2.47;;;13.80;99.90;;;;;;5008699;28;20841;-65
2022/11/08 18:01:04;;;;;;;2.63;2.43;;;13.80;99.90;;;;;;5011420;28;20424;-65
2022/11/08 18:03:31;;;;;;;3.77;2.40;;;13.90;99.90;;;;;;5011490;28;20406;-63
2022/11/08 18:05:59;;;;;;;4.77;3.27;;;14.00;99.90;;;;;;5010865;28;20456;-65
2022/11/08 18:08:26;;;;;;;2.87;2.40;;;14.00;99.90;;;;;;4993886;28;20521;-66
2022/11/08 18:10:52;;;;;;;2.47;2.27;;;14.00;99.90;;;;;;5012158;28;20921;-67
2022/11/08 18:13:18;;;;;;;5.13;2.73;;;14.00;99.90;;;;;;4993876;28;20563;-66
2022/11/08 18:15:45;;;;;;;5.10;2.70;;;14.00;99.90;;;;;;5012788;28;20445;-65
2022/11/08 18:18:10;;;;;;;3.40;2.03;;;14.00;99.90;;;;;;5012521;28;20991;-65
2022/11/08 18:20:36;;;;;;;3.30;3.00;;;13.90;99.90;;;;;;5012927;28;20535;-65
2022/11/08 18:23:02;;;;;;;3.50;3.20;;;13.90;99.90;;;;;;4994960;28;20177;-64